Miller, Nebraska
Current Conditions -  °F | °C
As of 12:55 AM on Monday 22 Dec 2014 (Local Time) from KLXN Reporting Station
Haze Haze  
Wind Chill: 30°   Ceiling: Unl
Heat Index: 34°   Visibility: 3mi
Dew Point: 32°   Wind: 5mph
Humidity: 94%   Direction: 280°W
Pressure: 29.51"   Gusts: NA
Location:  40.93°N, 99.39°W
Report Text: KLXN 220655Z AUTO 28004KT 3SM BR CLR 01/00 A2951 RMK AO2 T00100002
Loading
Personal Weather Stations






























Interactive Weather Map New forecast layout! Learn more

10-Day Weather Forecast

Advertisements
Track Severe Weather on mobile